Mount Aetna, PA (19544)

3:25 AM EDT on March 27, 2015 (GMT -0400)
North of | | Change Station
CLOSE
Current Station
Personal Weather Station
Location: Lebanon, PA
Elevation: 540 ft
Nearby Weather Stations

Elev 540 ft 40.39 °N, 76.42 °W | Updated 4 minutes ago

Rain
Rain
41.9 °F
Feels Like 42 °F
N
2.0
Wind Variable Wind from NW
Gusts 2.0 mph

Today
High -- | Low -- °F
--% Chance of Precip.
Yesterday
High -- | Low -- °F
Precip. -- in
6:57 AM 7:24 PM
Waxing Crescent, 50% visible
Pressure 29.78 in
Visibility 10.0 miles
Clouds Few 2200 ft
Scattered Clouds 7000 ft
Windchill 42 °F
Dew Point 37 °F
Humidity 83%
Rainfall 0.00 in
Snow Depth Not available.
UV 0 out of 12
Pollen 7.40 out of 12
Air Quality Not available.
Flu Activity Not available.
SPECI KMUI 270708Z AUTO VRB02KT 10SM FEW022 SCT070 06/02 A2978 RMK AO2 DZE08

More Conditions Fewer Conditions

Pressure 29.78 in
Visibility 10.0 miles
Clouds Few 2200 ft
Scattered Clouds 7000 ft
Windchill 42 °F
Dew Point 37 °F
Humidity 83%
Rainfall 0.00 in
Snow Depth Not available.
UV 0 out of 12
Pollen 7.40 out of 12
Air Quality Not available.
Flu Activity Not available.
SPECI KMUI 270708Z AUTO VRB02KT 10SM FEW022 SCT070 06/02 A2978 RMK AO2 DZE08

More Conditions Fewer Conditions

10-Day Weather Forecast

Almanac

Astronomy

Mar. 27, 2015 Rise Set
Actual Time
Civil Twilight
Nautical Twilight
Astronomical Twilight
Moon
Length of Visible Light
Length of Day
Tomorrow will be .
, % of the Moon is Illuminated

Today's Extremes

State Highs State Lows

Community

WunderPhotos

Upload Photos

1,808,701 photos uploaded!

WunderBlogs® & News

Nearby

Air Quality

  Air Quality AQ Index Pollutant
Not available.

Snow Depth

Station Depth Elevation

Earthquake Activity

City Distance Mag. Time & Date
Minimum magnitude displayed is 2.5.

Coastal Water Temperatures

Place Temperature

Stations

Nearby Weather Stations

Station Location Temp. Windchill Dew Point Humidity Wind Precip. Elev Updated Type